sensor_id;sensor_type;location;lat;lon;timestamp;pressure;altitude;pressure_sealevel;temperature;humidity
55685;BME280;41883;49.544;8.646;2023-03-31T00:00:26;99804.75;;;11.47;nan
55685;BME280;41883;49.544;8.646;2023-03-31T00:02:51;99802.94;;;11.47;nan
55685;BME280;41883;49.544;8.646;2023-03-31T00:05:18;99803.94;;;11.46;nan
55685;BME280;41883;49.544;8.646;2023-03-31T00:07:45;99805.22;;;11.51;nan
55685;BME280;41883;49.544;8.646;2023-03-31T00:10:12;99794.63;;;11.51;nan
55685;BME280;41883;49.544;8.646;2023-03-31T00:12:38;99797.28;;;11.51;nan
55685;BME280;41883;49.544;8.646;2023-03-31T00:15:03;99790.50;;;11.48;nan
55685;BME280;41883;49.544;8.646;2023-03-31T00:17:29;99786.69;;;11.51;nan
55685;BME280;41883;49.544;8.646;2023-03-31T00:19:57;99786.34;;;11.54;nan
55685;BME280;41883;49.544;8.646;2023-03-31T00:22:24;99773.28;;;11.52;nan
55685;BME280;41883;49.544;8.646;2023-03-31T00:24:51;99774.91;;;11.53;nan
55685;BME280;41883;49.544;8.646;2023-03-31T00:27:16;99780.22;;;11.53;nan
55685;BME280;41883;49.544;8.646;2023-03-31T00:29:42;99768.78;;;11.53;nan
55685;BME280;41883;49.544;8.646;2023-03-31T00:32:07;99760.03;;;11.52;nan
55685;BME280;41883;49.544;8.646;2023-03-31T00:34:32;99767.16;;;11.52;nan
55685;BME280;41883;49.544;8.646;2023-03-31T00:36:58;99757.03;;;11.55;nan
55685;BME280;41883;49.544;8.646;2023-03-31T00:39:27;99746.63;;;11.54;nan
55685;BME280;41883;49.544;8.646;2023-03-31T00:41:55;99742.16;;;11.54;nan
55685;BME280;41883;49.544;8.646;2023-03-31T00:44:21;99737.84;;;11.53;nan
55685;BME280;41883;49.544;8.646;2023-03-31T00:46:56;99727.25;;;11.53;nan
55685;BME280;41883;49.544;8.646;2023-03-31T00:51:48;99726.06;;;11.56;nan
55685;BME280;41883;49.544;8.646;2023-03-31T00:54:14;99727.09;;;11.55;nan
55685;BME280;41883;49.544;8.646;2023-03-31T00:56:40;99726.44;;;11.53;nan
55685;BME280;41883;49.544;8.646;2023-03-31T00:59:08;99717.84;;;11.51;nan
55685;BME280;41883;49.544;8.646;2023-03-31T01:01:34;99719.69;;;11.50;nan
55685;BME280;41883;49.544;8.646;2023-03-31T01:04:01;99709.09;;;11.50;nan
55685;BME280;41883;49.544;8.646;2023-03-31T01:06:26;99706.44;;;11.50;nan
55685;BME280;41883;49.544;8.646;2023-03-31T01:08:54;99703.97;;;11.48;nan
55685;BME280;41883;49.544;8.646;2023-03-31T01:11:21;99704.44;;;11.52;nan
55685;BME280;41883;49.544;8.646;2023-03-31T01:13:48;99696.94;;;11.56;nan
55685;BME280;41883;49.544;8.646;2023-03-31T01:16:15;99695.16;;;11.56;nan
55685;BME280;41883;49.544;8.646;2023-03-31T01:18:40;99695.59;;;11.60;nan
55685;BME280;41883;49.544;8.646;2023-03-31T01:21:33;99694.63;;;11.61;nan
55685;BME280;41883;49.544;8.646;2023-03-31T01:31:29;99675.31;;;11.52;nan
55685;BME280;41883;49.544;8.646;2023-03-31T01:34:27;99677.78;;;11.54;nan
55685;BME280;41883;49.544;8.646;2023-03-31T01:42:08;99664.06;;;11.50;nan
55685;BME280;41883;49.544;8.646;2023-03-31T01:47:26;99653.84;;;11.47;nan
55685;BME280;41883;49.544;8.646;2023-03-31T01:50:02;99646.56;;;11.49;nan
55685;BME280;41883;49.544;8.646;2023-03-31T01:52:35;99638.09;;;11.54;nan
55685;BME280;41883;49.544;8.646;2023-03-31T01:55:11;99633.41;;;11.56;nan
55685;BME280;41883;49.544;8.646;2023-03-31T01:57:52;99632.22;;;11.58;nan
55685;BME280;41883;49.544;8.646;2023-03-31T02:00:27;99627.56;;;11.60;nan
55685;BME280;41883;49.544;8.646;2023-03-31T02:02:55;99625.41;;;11.64;nan
55685;BME280;41883;49.544;8.646;2023-03-31T02:05:26;99631.34;;;11.66;nan
55685;BME280;41883;49.544;8.646;2023-03-31T02:07:55;99621.56;;;11.66;nan
55685;BME280;41883;49.544;8.646;2023-03-31T02:10:22;99624.38;;;11.65;nan
55685;BME280;41883;49.544;8.646;2023-03-31T02:12:49;99617.44;;;11.64;nan
55685;BME280;41883;49.544;8.646;2023-03-31T02:15:20;99608.88;;;11.62;nan
55685;BME280;41883;49.544;8.646;2023-03-31T02:17:47;99610.50;;;11.63;nan
55685;BME280;41883;49.544;8.646;2023-03-31T02:20:15;99601.47;;;11.57;nan
55685;BME280;41883;49.544;8.646;2023-03-31T02:22:44;99599.44;;;11.44;nan
55685;BME280;41883;49.544;8.646;2023-03-31T02:25:10;99593.94;;;11.31;nan
55685;BME280;41883;49.544;8.646;2023-03-31T02:27:38;99586.78;;;11.17;nan
55685;BME280;41883;49.544;8.646;2023-03-31T02:30:06;99590.69;;;11.06;nan
55685;BME280;41883;49.544;8.646;2023-03-31T02:32:36;99592.41;;;10.99;nan
55685;BME280;41883;49.544;8.646;2023-03-31T02:35:02;99580.03;;;10.91;nan
55685;BME280;41883;49.544;8.646;2023-03-31T02:37:28;99575.09;;;10.88;nan
55685;BME280;41883;49.544;8.646;2023-03-31T02:39:55;99568.34;;;10.86;nan
55685;BME280;41883;49.544;8.646;2023-03-31T02:42:21;99564.78;;;10.78;nan
55685;BME280;41883;49.544;8.646;2023-03-31T02:44:47;99559.00;;;10.75;nan
55685;BME280;41883;49.544;8.646;2023-03-31T02:47:13;99555.25;;;10.69;nan
55685;BME280;41883;49.544;8.646;2023-03-31T02:49:40;99568.47;;;10.69;nan
55685;BME280;41883;49.544;8.646;2023-03-31T02:52:27;99551.78;;;10.69;nan
55685;BME280;41883;49.544;8.646;2023-03-31T02:55:13;99538.94;;;10.66;nan
55685;BME280;41883;49.544;8.646;2023-03-31T02:57:48;99530.34;;;10.63;nan
55685;BME280;41883;49.544;8.646;2023-03-31T03:03:02;99511.19;;;10.61;nan
55685;BME280;41883;49.544;8.646;2023-03-31T03:05:44;99507.53;;;10.62;nan
55685;BME280;41883;49.544;8.646;2023-03-31T03:13:35;99472.06;;;10.57;nan
55685;BME280;41883;49.544;8.646;2023-03-31T03:16:06;99468.91;;;10.61;nan
55685;BME280;41883;49.544;8.646;2023-03-31T03:18:34;99466.69;;;10.65;nan
55685;BME280;41883;49.544;8.646;2023-03-31T03:21:00;99464.38;;;10.70;nan
55685;BME280;41883;49.544;8.646;2023-03-31T03:23:25;99457.38;;;10.77;nan
55685;BME280;41883;49.544;8.646;2023-03-31T03:25:50;99456.00;;;10.81;nan
55685;BME280;41883;49.544;8.646;2023-03-31T03:28:15;99443.25;;;10.85;nan
55685;BME280;41883;49.544;8.646;2023-03-31T03:30:41;99444.69;;;10.88;nan
55685;BME280;41883;49.544;8.646;2023-03-31T03:33:06;99436.78;;;10.88;nan
55685;BME280;41883;49.544;8.646;2023-03-31T03:35:32;99424.19;;;10.90;nan
55685;BME280;41883;49.544;8.646;2023-03-31T03:37:57;99418.91;;;10.90;nan
55685;BME280;41883;49.544;8.646;2023-03-31T03:40:23;99411.59;;;10.92;nan
55685;BME280;41883;49.544;8.646;2023-03-31T03:42:48;99402.66;;;10.93;nan
55685;BME280;41883;49.544;8.646;2023-03-31T03:45:13;99388.41;;;10.94;nan
55685;BME280;41883;49.544;8.646;2023-03-31T03:47:38;99370.91;;;10.93;nan
55685;BME280;41883;49.544;8.646;2023-03-31T03:50:04;99368.09;;;10.94;nan
55685;BME280;41883;49.544;8.646;2023-03-31T03:52:30;99344.09;;;10.96;nan
55685;BME280;41883;49.544;8.646;2023-03-31T03:54:55;99337.63;;;10.98;nan
55685;BME280;41883;49.544;8.646;2023-03-31T03:57:20;99321.19;;;11.03;nan
55685;BME280;41883;49.544;8.646;2023-03-31T03:59:45;99336.09;;;11.04;nan
55685;BME280;41883;49.544;8.646;2023-03-31T04:02:11;99335.25;;;11.03;nan
55685;BME280;41883;49.544;8.646;2023-03-31T04:04:36;99314.72;;;11.05;nan
55685;BME280;41883;49.544;8.646;2023-03-31T04:07:01;99320.22;;;11.04;nan
55685;BME280;41883;49.544;8.646;2023-03-31T04:09:26;99319.84;;;11.07;nan
55685;BME280;41883;49.544;8.646;2023-03-31T04:11:52;99328.59;;;11.08;nan
55685;BME280;41883;49.544;8.646;2023-03-31T04:14:17;99332.03;;;11.08;nan
55685;BME280;41883;49.544;8.646;2023-03-31T04:16:42;99339.00;;;11.09;nan
55685;BME280;41883;49.544;8.646;2023-03-31T04:19:10;99336.13;;;11.11;nan
55685;BME280;41883;49.544;8.646;2023-03-31T04:21:37;99339.44;;;11.13;nan
55685;BME280;41883;49.544;8.646;2023-03-31T04:24:09;99331.31;;;11.14;nan
55685;BME280;41883;49.544;8.646;2023-03-31T04:26:36;99334.44;;;11.18;nan
55685;BME280;41883;49.544;8.646;2023-03-31T04:29:11;99324.84;;;11.17;nan
55685;BME280;41883;49.544;8.646;2023-03-31T04:31:37;99312.25;;;11.19;nan
55685;BME280;41883;49.544;8.646;2023-03-31T04:34:06;99299.81;;;11.19;nan
55685;BME280;41883;49.544;8.646;2023-03-31T04:36:37;99289.88;;;11.21;nan
55685;BME280;41883;49.544;8.646;2023-03-31T04:39:06;99280.31;;;11.20;nan
55685;BME280;41883;49.544;8.646;2023-03-31T04:41:34;99285.41;;;11.22;nan
55685;BME280;41883;49.544;8.646;2023-03-31T04:43:59;99280.09;;;11.22;nan
55685;BME280;41883;49.544;8.646;2023-03-31T04:46:24;99282.97;;;11.20;nan
55685;BME280;41883;49.544;8.646;2023-03-31T04:48:51;99287.72;;;11.10;nan
55685;BME280;41883;49.544;8.646;2023-03-31T04:51:17;99284.84;;;10.90;nan
55685;BME280;41883;49.544;8.646;2023-03-31T04:53:44;99282.22;;;10.75;nan
55685;BME280;41883;49.544;8.646;2023-03-31T04:56:09;99277.38;;;10.64;nan
55685;BME280;41883;49.544;8.646;2023-03-31T04:58:34;99278.47;;;10.55;nan
55685;BME280;41883;49.544;8.646;2023-03-31T05:00:59;99288.59;;;10.51;nan
55685;BME280;41883;49.544;8.646;2023-03-31T05:03:25;99285.66;;;10.46;nan
55685;BME280;41883;49.544;8.646;2023-03-31T05:05:53;99286.19;;;10.41;nan
55685;BME280;41883;49.544;8.646;2023-03-31T05:08:18;99276.81;;;10.39;nan
55685;BME280;41883;49.544;8.646;2023-03-31T05:10:45;99275.34;;;10.36;nan
55685;BME280;41883;49.544;8.646;2023-03-31T05:13:10;99265.97;;;10.34;nan
55685;BME280;41883;49.544;8.646;2023-03-31T05:15:36;99268.97;;;10.31;nan
55685;BME280;41883;49.544;8.646;2023-03-31T05:18:01;99280.56;;;10.30;nan
55685;BME280;41883;49.544;8.646;2023-03-31T05:20:27;99270.00;;;10.30;nan
55685;BME280;41883;49.544;8.646;2023-03-31T05:22:52;99261.88;;;10.31;nan
55685;BME280;41883;49.544;8.646;2023-03-31T05:25:17;99272.44;;;10.31;nan
55685;BME280;41883;49.544;8.646;2023-03-31T05:27:43;99260.69;;;10.34;nan
55685;BME280;41883;49.544;8.646;2023-03-31T05:30:11;99269.16;;;10.29;nan
55685;BME280;41883;49.544;8.646;2023-03-31T05:32:36;99272.25;;;10.33;nan
55685;BME280;41883;49.544;8.646;2023-03-31T05:35:02;99260.41;;;10.29;nan
55685;BME280;41883;49.544;8.646;2023-03-31T05:37:27;99249.84;;;10.29;nan
55685;BME280;41883;49.544;8.646;2023-03-31T05:39:52;99237.94;;;10.25;nan
55685;BME280;41883;49.544;8.646;2023-03-31T05:42:18;99232.41;;;10.19;nan
55685;BME280;41883;49.544;8.646;2023-03-31T05:44:43;99221.19;;;10.17;nan
55685;BME280;41883;49.544;8.646;2023-03-31T05:47:09;99211.16;;;10.13;nan
55685;BME280;41883;49.544;8.646;2023-03-31T05:49:34;99219.28;;;10.11;nan
55685;BME280;41883;49.544;8.646;2023-03-31T05:52:00;99209.91;;;10.09;nan
55685;BME280;41883;49.544;8.646;2023-03-31T05:54:25;99220.47;;;10.09;nan
55685;BME280;41883;49.544;8.646;2023-03-31T05:56:51;99220.47;;;10.09;nan
55685;BME280;41883;49.544;8.646;2023-03-31T05:59:16;99211.44;;;10.03;nan
55685;BME280;41883;49.544;8.646;2023-03-31T06:01:42;99198.22;;;10.03;nan
55685;BME280;41883;49.544;8.646;2023-03-31T06:04:07;99192.66;;;9.98;nan
55685;BME280;41883;49.544;8.646;2023-03-31T06:06:32;99185.28;;;9.93;nan
55685;BME280;41883;49.544;8.646;2023-03-31T06:08:58;99185.00;;;9.88;nan
55685;BME280;41883;49.544;8.646;2023-03-31T06:11:23;99182.38;;;9.88;nan
55685;BME280;41883;49.544;8.646;2023-03-31T06:13:49;99170.53;;;9.84;nan
55685;BME280;41883;49.544;8.646;2023-03-31T06:16:15;99143.78;;;9.87;nan
55685;BME280;41883;49.544;8.646;2023-03-31T06:18:41;99138.03;;;9.84;nan
55685;BME280;41883;49.544;8.646;2023-03-31T06:21:06;99134.75;;;9.82;nan
55685;BME280;41883;49.544;8.646;2023-03-31T06:23:32;99122.38;;;9.82;nan
55685;BME280;41883;49.544;8.646;2023-03-31T06:26:01;99109.63;;;9.86;nan
55685;BME280;41883;49.544;8.646;2023-03-31T06:28:27;99099.88;;;9.86;nan
55685;BME280;41883;49.544;8.646;2023-03-31T06:31:26;99095.25;;;9.88;nan
55685;BME280;41883;49.544;8.646;2023-03-31T06:33:44;99087.59;;;9.93;nan
55685;BME280;41883;49.544;8.646;2023-03-31T06:36:11;99086.22;;;9.97;nan
55685;BME280;41883;49.544;8.646;2023-03-31T06:38:36;99060.72;;;10.05;nan
55685;BME280;41883;49.544;8.646;2023-03-31T06:41:05;99055.91;;;10.08;nan
55685;BME280;41883;49.544;8.646;2023-03-31T06:43:31;99070.56;;;10.11;nan
55685;BME280;41883;49.544;8.646;2023-03-31T06:45:56;99083.00;;;10.17;nan
55685;BME280;41883;49.544;8.646;2023-03-31T06:48:22;99081.28;;;10.24;nan
55685;BME280;41883;49.544;8.646;2023-03-31T06:50:47;99073.28;;;10.32;nan
55685;BME280;41883;49.544;8.646;2023-03-31T06:53:13;99080.47;;;10.38;nan
55685;BME280;41883;49.544;8.646;2023-03-31T06:55:38;99092.94;;;10.45;nan
55685;BME280;41883;49.544;8.646;2023-03-31T06:58:03;99081.59;;;10.51;nan
55685;BME280;41883;49.544;8.646;2023-03-31T07:00:29;99086.59;;;10.60;nan
55685;BME280;41883;49.544;8.646;2023-03-31T07:02:55;99077.09;;;10.66;nan
55685;BME280;41883;49.544;8.646;2023-03-31T07:05:20;99086.91;;;10.72;nan
55685;BME280;41883;49.544;8.646;2023-03-31T07:07:52;99079.81;;;10.73;nan
55685;BME280;41883;49.544;8.646;2023-03-31T07:10:17;99083.91;;;10.75;nan
55685;BME280;41883;49.544;8.646;2023-03-31T07:12:42;99087.19;;;10.77;nan
55685;BME280;41883;49.544;8.646;2023-03-31T07:15:08;99099.78;;;10.75;nan
55685;BME280;41883;49.544;8.646;2023-03-31T07:17:33;99095.47;;;10.74;nan
55685;BME280;41883;49.544;8.646;2023-03-31T07:19:58;99087.94;;;10.71;nan
55685;BME280;41883;49.544;8.646;2023-03-31T07:22:24;99090.31;;;10.66;nan
55685;BME280;41883;49.544;8.646;2023-03-31T07:24:49;99087.28;;;10.69;nan
55685;BME280;41883;49.544;8.646;2023-03-31T07:27:14;99080.41;;;10.75;nan
55685;BME280;41883;49.544;8.646;2023-03-31T07:29:40;99081.44;;;10.74;nan
55685;BME280;41883;49.544;8.646;2023-03-31T07:32:05;99072.06;;;10.71;nan
55685;BME280;41883;49.544;8.646;2023-03-31T07:34:30;99078.25;;;10.78;nan
55685;BME280;41883;49.544;8.646;2023-03-31T07:36:55;99072.81;;;10.87;nan
55685;BME280;41883;49.544;8.646;2023-03-31T07:39:20;99069.59;;;10.91;nan
55685;BME280;41883;49.544;8.646;2023-03-31T07:41:46;99071.91;;;11.01;nan
55685;BME280;41883;49.544;8.646;2023-03-31T07:44:11;99078.72;;;11.10;nan
55685;BME280;41883;49.544;8.646;2023-03-31T07:46:36;99064.56;;;11.18;nan
55685;BME280;41883;49.544;8.646;2023-03-31T07:49:01;99079.72;;;11.31;nan
55685;BME280;41883;49.544;8.646;2023-03-31T07:51:27;99067.56;;;11.43;nan
55685;BME280;41883;49.544;8.646;2023-03-31T07:53:52;99078.69;;;11.60;nan
55685;BME280;41883;49.544;8.646;2023-03-31T07:56:19;99082.88;;;11.76;nan
55685;BME280;41883;49.544;8.646;2023-03-31T07:58:45;99088.56;;;11.79;nan
55685;BME280;41883;49.544;8.646;2023-03-31T08:01:14;99078.69;;;11.88;nan
55685;BME280;41883;49.544;8.646;2023-03-31T08:03:46;99072.13;;;12.25;nan
55685;BME280;41883;49.544;8.646;2023-03-31T08:06:18;99090.97;;;12.50;nan
55685;BME280;41883;49.544;8.646;2023-03-31T08:08:43;99093.19;;;12.40;nan
55685;BME280;41883;49.544;8.646;2023-03-31T08:11:09;99088.63;;;12.21;nan
55685;BME280;41883;49.544;8.646;2023-03-31T08:13:34;99084.91;;;12.08;nan
55685;BME280;41883;49.544;8.646;2023-03-31T08:16:00;99093.63;;;12.02;nan
55685;BME280;41883;49.544;8.646;2023-03-31T08:18:25;99093.81;;;12.01;nan
55685;BME280;41883;49.544;8.646;2023-03-31T08:20:50;99082.59;;;11.99;nan
55685;BME280;41883;49.544;8.646;2023-03-31T08:23:16;99092.81;;;12.02;nan
55685;BME280;41883;49.544;8.646;2023-03-31T08:25:41;99094.03;;;11.99;nan
55685;BME280;41883;49.544;8.646;2023-03-31T08:28:06;99103.97;;;11.90;nan
55685;BME280;41883;49.544;8.646;2023-03-31T08:30:35;99112.41;;;11.79;nan
55685;BME280;41883;49.544;8.646;2023-03-31T08:33:01;99109.28;;;11.69;nan
55685;BME280;41883;49.544;8.646;2023-03-31T08:35:26;99111.44;;;11.52;nan
55685;BME280;41883;49.544;8.646;2023-03-31T08:37:51;99094.03;;;11.43;nan
55685;BME280;41883;49.544;8.646;2023-03-31T08:40:21;99096.06;;;11.41;nan
55685;BME280;41883;49.544;8.646;2023-03-31T08:42:48;99090.53;;;11.36;nan
55685;BME280;41883;49.544;8.646;2023-03-31T08:47:57;99090.25;;;11.52;nan
55685;BME280;41883;49.544;8.646;2023-03-31T08:50:26;99089.28;;;11.60;nan
55685;BME280;41883;49.544;8.646;2023-03-31T08:53:06;99087.03;;;11.57;nan
55685;BME280;41883;49.544;8.646;2023-03-31T08:55:42;99096.81;;;11.56;nan
55685;BME280;41883;49.544;8.646;2023-03-31T09:01:00;99101.16;;;11.42;nan
55685;BME280;41883;49.544;8.646;2023-03-31T09:03:30;99091.97;;;11.38;nan
55685;BME280;41883;49.544;8.646;2023-03-31T09:06:00;99088.06;;;11.34;nan
55685;BME280;41883;49.544;8.646;2023-03-31T09:10:57;99074.53;;;11.22;nan
55685;BME280;41883;49.544;8.646;2023-03-31T09:18:37;99080.13;;;11.06;nan
55685;BME280;41883;49.544;8.646;2023-03-31T09:23:38;99098.34;;;10.94;nan
55685;BME280;41883;49.544;8.646;2023-03-31T09:26:07;99077.53;;;10.91;nan
55685;BME280;41883;49.544;8.646;2023-03-31T09:28:38;99095.22;;;10.91;nan
55685;BME280;41883;49.544;8.646;2023-03-31T09:31:06;99109.16;;;10.78;nan
55685;BME280;41883;49.544;8.646;2023-03-31T09:33:32;99106.56;;;10.48;nan
55685;BME280;41883;49.544;8.646;2023-03-31T09:36:01;99095.50;;;10.23;nan
55685;BME280;41883;49.544;8.646;2023-03-31T09:38:27;99086.03;;;9.84;nan
55685;BME280;41883;49.544;8.646;2023-03-31T09:40:54;99083.84;;;9.58;nan
55685;BME280;41883;49.544;8.646;2023-03-31T09:43:23;99089.91;;;9.44;nan
55685;BME280;41883;49.544;8.646;2023-03-31T09:45:50;99089.06;;;9.13;nan
55685;BME280;41883;49.544;8.646;2023-03-31T09:48:17;99111.41;;;8.80;nan
55685;BME280;41883;49.544;8.646;2023-03-31T09:50:51;99109.66;;;8.33;nan
55685;BME280;41883;49.544;8.646;2023-03-31T09:53:18;99105.94;;;8.19;nan
55685;BME280;41883;49.544;8.646;2023-03-31T09:55:48;99117.75;;;8.23;nan
55685;BME280;41883;49.544;8.646;2023-03-31T09:58:15;99092.91;;;8.25;nan
55685;BME280;41883;49.544;8.646;2023-03-31T10:00:41;99076.88;;;8.35;nan
55685;BME280;41883;49.544;8.646;2023-03-31T10:03:09;99068.31;;;8.41;nan
55685;BME280;41883;49.544;8.646;2023-03-31T10:05:36;99059.56;;;8.49;nan
55685;BME280;41883;49.544;8.646;2023-03-31T10:10:48;99048.78;;;8.59;nan
55685;BME280;41883;49.544;8.646;2023-03-31T10:13:17;99031.03;;;8.76;nan
55685;BME280;41883;49.544;8.646;2023-03-31T10:15:44;99031.03;;;8.76;nan
55685;BME280;41883;49.544;8.646;2023-03-31T10:18:13;99046.13;;;8.82;nan
55685;BME280;41883;49.544;8.646;2023-03-31T10:20:51;99070.69;;;8.82;nan
55685;BME280;41883;49.544;8.646;2023-03-31T10:23:29;99093.97;;;8.93;nan
55685;BME280;41883;49.544;8.646;2023-03-31T10:25:56;99053.03;;;9.06;nan
55685;BME280;41883;49.544;8.646;2023-03-31T10:28:22;99045.53;;;9.32;nan
55685;BME280;41883;49.544;8.646;2023-03-31T10:30:51;99044.19;;;9.51;nan
55685;BME280;41883;49.544;8.646;2023-03-31T10:33:21;99031.44;;;9.70;nan
55685;BME280;41883;49.544;8.646;2023-03-31T10:35:53;99009.03;;;9.81;nan
55685;BME280;41883;49.544;8.646;2023-03-31T10:38:26;99010.75;;;9.88;nan
55685;BME280;41883;49.544;8.646;2023-03-31T10:40:55;98999.81;;;10.06;nan
55685;BME280;41883;49.544;8.646;2023-03-31T10:43:28;99001.69;;;10.12;nan
55685;BME280;41883;49.544;8.646;2023-03-31T10:45:54;99011.25;;;10.28;nan
55685;BME280;41883;49.544;8.646;2023-03-31T10:48:24;99000.13;;;10.54;nan
55685;BME280;41883;49.544;8.646;2023-03-31T10:50:51;98995.56;;;10.70;nan
55685;BME280;41883;49.544;8.646;2023-03-31T10:53:16;98999.03;;;10.92;nan
55685;BME280;41883;49.544;8.646;2023-03-31T11:03:41;98987.81;;;11.87;nan
55685;BME280;41883;49.544;8.646;2023-03-31T11:06:16;98989.50;;;12.02;nan
55685;BME280;41883;49.544;8.646;2023-03-31T11:11:17;98998.81;;;11.50;nan
55685;BME280;41883;49.544;8.646;2023-03-31T11:13:56;99026.09;;;11.22;nan
55685;BME280;41883;49.544;8.646;2023-03-31T11:16:43;99002.16;;;11.02;nan
55685;BME280;41883;49.544;8.646;2023-03-31T11:19:25;99003.53;;;10.98;nan
55685;BME280;41883;49.544;8.646;2023-03-31T11:27:48;99010.13;;;10.59;nan
55685;BME280;41883;49.544;8.646;2023-03-31T11:32:51;98966.41;;;10.56;nan
55685;BME280;41883;49.544;8.646;2023-03-31T11:43:05;98974.63;;;10.96;nan
55685;BME280;41883;49.544;8.646;2023-03-31T11:45:36;98970.69;;;11.14;nan
55685;BME280;41883;49.544;8.646;2023-03-31T11:48:04;98974.47;;;11.74;nan
55685;BME280;41883;49.544;8.646;2023-03-31T11:50:32;98969.81;;;12.84;nan
55685;BME280;41883;49.544;8.646;2023-03-31T11:53:02;98969.66;;;13.77;nan
55685;BME280;41883;49.544;8.646;2023-03-31T11:55:29;98966.63;;;14.44;nan
55685;BME280;41883;49.544;8.646;2023-03-31T12:00:24;98959.56;;;13.99;nan
55685;BME280;41883;49.544;8.646;2023-03-31T12:05:37;98947.31;;;13.47;nan
55685;BME280;41883;49.544;8.646;2023-03-31T12:08:05;98945.09;;;13.10;nan
55685;BME280;41883;49.544;8.646;2023-03-31T12:15:32;98964.91;;;11.73;nan
55685;BME280;41883;49.544;8.646;2023-03-31T12:18:00;98973.06;;;11.37;nan
55685;BME280;41883;49.544;8.646;2023-03-31T12:20:28;98974.63;;;11.24;nan
55685;BME280;41883;49.544;8.646;2023-03-31T12:22:58;98968.75;;;11.29;nan
55685;BME280;41883;49.544;8.646;2023-03-31T12:25:26;98956.72;;;11.61;nan
55685;BME280;41883;49.544;8.646;2023-03-31T12:27:58;98947.63;;;11.84;nan
55685;BME280;41883;49.544;8.646;2023-03-31T12:30:33;98945.69;;;11.99;nan
55685;BME280;41883;49.544;8.646;2023-03-31T12:33:06;98916.53;;;11.99;nan
55685;BME280;41883;49.544;8.646;2023-03-31T12:35:39;98906.78;;;12.20;nan
55685;BME280;41883;49.544;8.646;2023-03-31T12:45:54;98925.94;;;13.02;nan
55685;BME280;41883;49.544;8.646;2023-03-31T12:51:09;98946.31;;;13.14;nan
55685;BME280;41883;49.544;8.646;2023-03-31T12:56:02;98941.84;;;13.35;nan
55685;BME280;41883;49.544;8.646;2023-03-31T13:01:14;98936.41;;;13.68;nan
55685;BME280;41883;49.544;8.646;2023-03-31T13:11:18;98932.59;;;13.89;nan
55685;BME280;41883;49.544;8.646;2023-03-31T13:13:46;98926.66;;;13.94;nan
55685;BME280;41883;49.544;8.646;2023-03-31T13:16:20;98921.50;;;13.99;nan
55685;BME280;41883;49.544;8.646;2023-03-31T13:18:49;98913.28;;;14.14;nan
55685;BME280;41883;49.544;8.646;2023-03-31T13:21:15;98903.09;;;14.04;nan
55685;BME280;41883;49.544;8.646;2023-03-31T13:23:42;98910.38;;;14.15;nan
55685;BME280;41883;49.544;8.646;2023-03-31T13:26:34;98911.16;;;14.22;nan
55685;BME280;41883;49.544;8.646;2023-03-31T13:34:19;98906.22;;;14.26;nan
55685;BME280;41883;49.544;8.646;2023-03-31T13:47:43;98894.84;;;13.80;nan
55685;BME280;41883;49.544;8.646;2023-03-31T13:55:39;98886.09;;;13.28;nan
55685;BME280;41883;49.544;8.646;2023-03-31T14:04:21;98880.56;;;13.30;nan
55685;BME280;41883;49.544;8.646;2023-03-31T14:08:59;98889.78;;;13.07;nan
55685;BME280;41883;49.544;8.646;2023-03-31T14:14:00;98895.78;;;12.69;nan
55685;BME280;41883;49.544;8.646;2023-03-31T14:16:26;98906.38;;;12.36;nan
55685;BME280;41883;49.544;8.646;2023-03-31T14:18:53;98898.63;;;12.15;nan
55685;BME280;41883;49.544;8.646;2023-03-31T14:21:27;98889.63;;;11.96;nan
55685;BME280;41883;49.544;8.646;2023-03-31T14:24:11;98875.69;;;11.74;nan
55685;BME280;41883;49.544;8.646;2023-03-31T14:29:39;98888.41;;;11.43;nan
55685;BME280;41883;49.544;8.646;2023-03-31T14:37:27;98868.66;;;11.39;nan
55685;BME280;41883;49.544;8.646;2023-03-31T14:39:53;98867.06;;;11.52;nan
55685;BME280;41883;49.544;8.646;2023-03-31T14:42:24;98858.97;;;11.66;nan
55685;BME280;41883;49.544;8.646;2023-03-31T14:44:54;98859.59;;;11.82;nan
55685;BME280;41883;49.544;8.646;2023-03-31T14:47:21;98860.28;;;11.97;nan
55685;BME280;41883;49.544;8.646;2023-03-31T14:49:47;98861.13;;;12.04;nan
55685;BME280;41883;49.544;8.646;2023-03-31T14:52:13;98861.53;;;12.15;nan
55685;BME280;41883;49.544;8.646;2023-03-31T14:54:40;98850.53;;;12.24;nan
55685;BME280;41883;49.544;8.646;2023-03-31T14:57:08;98851.94;;;12.40;nan
55685;BME280;41883;49.544;8.646;2023-03-31T14:59:35;98857.84;;;12.56;nan
55685;BME280;41883;49.544;8.646;2023-03-31T15:02:02;98853.78;;;12.60;nan
55685;BME280;41883;49.544;8.646;2023-03-31T15:04:28;98859.06;;;12.60;nan
55685;BME280;41883;49.544;8.646;2023-03-31T15:06:54;98863.56;;;12.59;nan
55685;BME280;41883;49.544;8.646;2023-03-31T15:09:23;98865.00;;;12.55;nan
55685;BME280;41883;49.544;8.646;2023-03-31T15:11:52;98871.50;;;12.39;nan
55685;BME280;41883;49.544;8.646;2023-03-31T15:14:18;98874.78;;;12.28;nan
55685;BME280;41883;49.544;8.646;2023-03-31T15:16:43;98871.91;;;12.03;nan
55685;BME280;41883;49.544;8.646;2023-03-31T15:19:16;98887.13;;;11.81;nan
55685;BME280;41883;49.544;8.646;2023-03-31T15:21:43;98883.81;;;11.72;nan
55685;BME280;41883;49.544;8.646;2023-03-31T15:24:12;98882.13;;;11.51;nan
55685;BME280;41883;49.544;8.646;2023-03-31T15:26:39;98880.47;;;11.43;nan
55685;BME280;41883;49.544;8.646;2023-03-31T15:29:07;98880.47;;;11.43;nan
55685;BME280;41883;49.544;8.646;2023-03-31T15:31:33;98881.31;;;11.51;nan
55685;BME280;41883;49.544;8.646;2023-03-31T15:33:59;98881.16;;;11.59;nan
55685;BME280;41883;49.544;8.646;2023-03-31T15:36:24;98882.19;;;11.64;nan
55685;BME280;41883;49.544;8.646;2023-03-31T15:38:54;98880.78;;;11.68;nan
55685;BME280;41883;49.544;8.646;2023-03-31T15:41:20;98885.47;;;11.73;nan
55685;BME280;41883;49.544;8.646;2023-03-31T15:43:47;98887.34;;;11.86;nan
55685;BME280;41883;49.544;8.646;2023-03-31T15:46:18;98887.19;;;12.01;nan
55685;BME280;41883;49.544;8.646;2023-03-31T15:48:48;98875.19;;;12.11;nan
55685;BME280;41883;49.544;8.646;2023-03-31T15:51:24;98875.19;;;12.25;nan